Merimbula, New South Wales

1:48 PM AEDT on October 21, 2014 (GMT +1100)
Merimbula | Change Station
CLOSE
Current Station
Airport
Location: Merimbula Airport, NSW,
Elevation: 7 ft
Nearby Weather Stations

Elev 7 ft 36.91 °S, 149.90 °E | Updated 48 minutes ago

Overcast
Overcast
63 °F
Feels Like 63 °F
N
13
Wind Variable Wind from NNE

Today
High -- | Low -- °F
--% Chance of Precip.
Yesterday
High -- | Low -- °F
Precip. -- in
6:08 AM 7:22 PM
Waning Crescent, 8% visible
Pressure 30.48 in
Visibility 6.2 miles
Clouds Overcast 4900 ft
Dew Point 46 °F
Humidity 55%
Rainfall 0.00 in
Snow Depth Not available.
UV 3 out of 12
Pollen Not available.
Air Quality Not available.
Flu Activity Not available.
METAR YMER 210200Z AUTO 03011KT 9999 // OVC049 17/08 Q1032

More Conditions Fewer Conditions

Pressure 30.48 in
Visibility 6.2 miles
Clouds Overcast 4900 ft
Dew Point 46 °F
Humidity 55%
Rainfall 0.00 in
Snow Depth Not available.
UV 3 out of 12
Pollen Not available.
Air Quality Not available.
Flu Activity Not available.
METAR YMER 210200Z AUTO 03011KT 9999 // OVC049 17/08 Q1032

More Conditions Fewer Conditions

10-Day Weather Forecast

Almanac

Astronomy

Oct. 21, 2014 Rise Set
Actual Time 6:08 AM AEDT 7:22 PM AEDT
Civil Twilight 5:41 AM AEDT 7:48 PM AEDT
Nautical Twilight 5:09 AM AEDT 8:21 PM AEDT
Astronomical Twilight 4:36 AM AEDT 8:54 PM AEDT
Moon 4:31 AM AEDT 4:50 PM AEDT
Length of Visible Light 14h 07m
Length of Day
13h 13m
Tomorrow will be 2m 16s longer.
Waning Crescent, 8% of the Moon is Illuminated
Oct 20
Waning Crescent
Oct 23
New
Oct 30
First Quarter
Nov 6
Full
Nov 14
Last Quarter

Yesterday's Extremes

Country Highs Country Lows

Community

WunderPhotos

Upload Photos

1,763,580 photos uploaded!

Nearby

Snow Depth

Not available.

Earthquake Activity

City Distance Mag. Time & Date
No recent earthquake activity has been reported nearby.
Minimum magnitude displayed is 2.5.

Coastal Water Temperatures

Place Temperature
No Stations Reporting

Nearby Weather Stations